sensor_id;sensor_type;location;lat;lon;timestamp;P1;durP1;ratioP1;P2;durP2;ratioP2
11711;SDS011;5912;51.034;6.984;2023-03-01T00:01:04;6.10;;;4.60;;
11711;SDS011;5912;51.034;6.984;2023-03-01T00:03:30;6.47;;;4.73;;
11711;SDS011;5912;51.034;6.984;2023-03-01T00:05:56;7.13;;;4.63;;
11711;SDS011;5912;51.034;6.984;2023-03-01T00:08:22;6.30;;;4.80;;
11711;SDS011;5912;51.034;6.984;2023-03-01T00:10:48;6.77;;;5.03;;
11711;SDS011;5912;51.034;6.984;2023-03-01T00:13:13;7.83;;;4.87;;
11711;SDS011;5912;51.034;6.984;2023-03-01T00:15:39;5.67;;;4.80;;
11711;SDS011;5912;51.034;6.984;2023-03-01T00:18:06;6.60;;;5.30;;
11711;SDS011;5912;51.034;6.984;2023-03-01T00:20:32;6.93;;;4.70;;
11711;SDS011;5912;51.034;6.984;2023-03-01T00:22:57;6.73;;;4.93;;
11711;SDS011;5912;51.034;6.984;2023-03-01T00:25:22;5.23;;;4.23;;
11711;SDS011;5912;51.034;6.984;2023-03-01T00:27:48;7.70;;;4.33;;
11711;SDS011;5912;51.034;6.984;2023-03-01T00:30:14;6.23;;;4.87;;
11711;SDS011;5912;51.034;6.984;2023-03-01T00:32:40;6.20;;;4.70;;
11711;SDS011;5912;51.034;6.984;2023-03-01T00:35:05;6.63;;;4.60;;
11711;SDS011;5912;51.034;6.984;2023-03-01T00:37:31;5.93;;;4.87;;
11711;SDS011;5912;51.034;6.984;2023-03-01T00:39:56;5.50;;;4.37;;
11711;SDS011;5912;51.034;6.984;2023-03-01T00:42:21;7.07;;;4.30;;
11711;SDS011;5912;51.034;6.984;2023-03-01T00:44:47;6.57;;;4.67;;
11711;SDS011;5912;51.034;6.984;2023-03-01T00:47:12;5.87;;;4.70;;
11711;SDS011;5912;51.034;6.984;2023-03-01T00:49:38;6.30;;;4.73;;
11711;SDS011;5912;51.034;6.984;2023-03-01T00:52:04;6.13;;;4.10;;
11711;SDS011;5912;51.034;6.984;2023-03-01T00:54:29;5.43;;;4.53;;
11711;SDS011;5912;51.034;6.984;2023-03-01T00:56:55;5.97;;;4.70;;
11711;SDS011;5912;51.034;6.984;2023-03-01T00:59:20;9.30;;;4.83;;
11711;SDS011;5912;51.034;6.984;2023-03-01T01:01:45;6.07;;;4.43;;
11711;SDS011;5912;51.034;6.984;2023-03-01T01:04:11;7.30;;;4.93;;
11711;SDS011;5912;51.034;6.984;2023-03-01T01:06:39;8.30;;;5.07;;
11711;SDS011;5912;51.034;6.984;2023-03-01T01:09:10;7.27;;;4.60;;
11711;SDS011;5912;51.034;6.984;2023-03-01T01:11:42;5.67;;;4.37;;
11711;SDS011;5912;51.034;6.984;2023-03-01T01:14:09;5.80;;;4.60;;
11711;SDS011;5912;51.034;6.984;2023-03-01T01:16:34;5.50;;;4.30;;
11711;SDS011;5912;51.034;6.984;2023-03-01T01:19:00;8.23;;;4.43;;
11711;SDS011;5912;51.034;6.984;2023-03-01T01:21:25;6.10;;;4.70;;
11711;SDS011;5912;51.034;6.984;2023-03-01T01:23:51;6.00;;;4.33;;
11711;SDS011;5912;51.034;6.984;2023-03-01T01:26:27;5.90;;;4.30;;
11711;SDS011;5912;51.034;6.984;2023-03-01T01:28:54;6.17;;;4.93;;
11711;SDS011;5912;51.034;6.984;2023-03-01T01:31:20;6.10;;;4.43;;
11711;SDS011;5912;51.034;6.984;2023-03-01T01:33:48;6.07;;;3.80;;
11711;SDS011;5912;51.034;6.984;2023-03-01T01:36:14;6.40;;;4.60;;
11711;SDS011;5912;51.034;6.984;2023-03-01T01:38:39;5.40;;;4.37;;
11711;SDS011;5912;51.034;6.984;2023-03-01T01:41:06;7.27;;;5.00;;
11711;SDS011;5912;51.034;6.984;2023-03-01T01:43:35;6.80;;;4.43;;
11711;SDS011;5912;51.034;6.984;2023-03-01T01:49:00;6.40;;;4.50;;
11711;SDS011;5912;51.034;6.984;2023-03-01T01:51:31;8.80;;;4.97;;
11711;SDS011;5912;51.034;6.984;2023-03-01T01:54:08;6.40;;;5.27;;
11711;SDS011;5912;51.034;6.984;2023-03-01T01:56:37;5.83;;;4.70;;
11711;SDS011;5912;51.034;6.984;2023-03-01T01:59:03;6.70;;;5.20;;
11711;SDS011;5912;51.034;6.984;2023-03-01T02:01:29;6.03;;;4.53;;
11711;SDS011;5912;51.034;6.984;2023-03-01T02:03:54;6.33;;;4.60;;
11711;SDS011;5912;51.034;6.984;2023-03-01T02:08:54;5.43;;;4.40;;
11711;SDS011;5912;51.034;6.984;2023-03-01T02:11:23;6.13;;;4.53;;
11711;SDS011;5912;51.034;6.984;2023-03-01T02:13:50;6.87;;;4.33;;
11711;SDS011;5912;51.034;6.984;2023-03-01T02:16:18;6.03;;;4.27;;
11711;SDS011;5912;51.034;6.984;2023-03-01T02:18:44;6.53;;;4.60;;
11711;SDS011;5912;51.034;6.984;2023-03-01T02:23:41;5.53;;;4.13;;
11711;SDS011;5912;51.034;6.984;2023-03-01T02:28:57;4.87;;;3.67;;
11711;SDS011;5912;51.034;6.984;2023-03-01T02:31:22;5.17;;;4.00;;
11711;SDS011;5912;51.034;6.984;2023-03-01T02:34:07;7.67;;;4.73;;
11711;SDS011;5912;51.034;6.984;2023-03-01T02:36:36;6.70;;;4.93;;
11711;SDS011;5912;51.034;6.984;2023-03-01T02:39:09;7.30;;;5.30;;
11711;SDS011;5912;51.034;6.984;2023-03-01T02:41:42;7.20;;;5.70;;
11711;SDS011;5912;51.034;6.984;2023-03-01T02:44:11;8.17;;;5.70;;
11711;SDS011;5912;51.034;6.984;2023-03-01T02:46:44;7.97;;;5.10;;
11711;SDS011;5912;51.034;6.984;2023-03-01T02:49:18;7.10;;;4.60;;
11711;SDS011;5912;51.034;6.984;2023-03-01T02:57:28;6.90;;;4.73;;
11711;SDS011;5912;51.034;6.984;2023-03-01T02:59:55;5.53;;;4.57;;
11711;SDS011;5912;51.034;6.984;2023-03-01T03:02:23;6.50;;;4.60;;
11711;SDS011;5912;51.034;6.984;2023-03-01T03:07:33;6.77;;;5.00;;
11711;SDS011;5912;51.034;6.984;2023-03-01T03:10:00;5.97;;;4.73;;
11711;SDS011;5912;51.034;6.984;2023-03-01T03:12:26;6.17;;;4.23;;
11711;SDS011;5912;51.034;6.984;2023-03-01T03:14:51;6.60;;;4.73;;
11711;SDS011;5912;51.034;6.984;2023-03-01T03:17:16;6.43;;;4.50;;
11711;SDS011;5912;51.034;6.984;2023-03-01T03:19:42;6.23;;;4.47;;
11711;SDS011;5912;51.034;6.984;2023-03-01T03:22:10;7.17;;;5.00;;
11711;SDS011;5912;51.034;6.984;2023-03-01T03:24:37;6.50;;;4.47;;
11711;SDS011;5912;51.034;6.984;2023-03-01T03:27:06;5.87;;;4.43;;
11711;SDS011;5912;51.034;6.984;2023-03-01T03:29:32;6.67;;;4.90;;
11711;SDS011;5912;51.034;6.984;2023-03-01T03:31:58;5.70;;;4.60;;
11711;SDS011;5912;51.034;6.984;2023-03-01T03:34:24;6.30;;;4.63;;
11711;SDS011;5912;51.034;6.984;2023-03-01T03:36:53;6.47;;;4.77;;
11711;SDS011;5912;51.034;6.984;2023-03-01T03:39:24;6.57;;;5.23;;
11711;SDS011;5912;51.034;6.984;2023-03-01T03:41:50;8.70;;;5.13;;
11711;SDS011;5912;51.034;6.984;2023-03-01T03:44:16;6.77;;;4.90;;
11711;SDS011;5912;51.034;6.984;2023-03-01T03:46:41;6.27;;;5.00;;
11711;SDS011;5912;51.034;6.984;2023-03-01T03:49:06;7.67;;;5.43;;
11711;SDS011;5912;51.034;6.984;2023-03-01T03:51:31;8.37;;;5.30;;
11711;SDS011;5912;51.034;6.984;2023-03-01T03:53:57;7.93;;;5.40;;
11711;SDS011;5912;51.034;6.984;2023-03-01T03:56:22;7.53;;;5.30;;
11711;SDS011;5912;51.034;6.984;2023-03-01T03:58:51;6.80;;;4.67;;
11711;SDS011;5912;51.034;6.984;2023-03-01T04:01:19;6.50;;;5.00;;
11711;SDS011;5912;51.034;6.984;2023-03-01T04:03:44;7.23;;;5.33;;
11711;SDS011;5912;51.034;6.984;2023-03-01T04:06:13;8.10;;;5.43;;
11711;SDS011;5912;51.034;6.984;2023-03-01T04:08:39;7.03;;;4.87;;
11711;SDS011;5912;51.034;6.984;2023-03-01T04:11:05;7.27;;;5.20;;
11711;SDS011;5912;51.034;6.984;2023-03-01T04:13:50;7.37;;;5.57;;
11711;SDS011;5912;51.034;6.984;2023-03-01T04:16:16;7.53;;;5.40;;
11711;SDS011;5912;51.034;6.984;2023-03-01T04:18:42;7.60;;;5.40;;
11711;SDS011;5912;51.034;6.984;2023-03-01T04:21:08;8.60;;;6.13;;
11711;SDS011;5912;51.034;6.984;2023-03-01T04:23:34;6.77;;;5.27;;
11711;SDS011;5912;51.034;6.984;2023-03-01T04:26:00;8.13;;;5.07;;
11711;SDS011;5912;51.034;6.984;2023-03-01T04:28:32;8.60;;;5.17;;
11711;SDS011;5912;51.034;6.984;2023-03-01T04:31:05;7.83;;;5.80;;
11711;SDS011;5912;51.034;6.984;2023-03-01T04:33:39;6.03;;;4.53;;
11711;SDS011;5912;51.034;6.984;2023-03-01T04:36:10;6.33;;;5.17;;
11711;SDS011;5912;51.034;6.984;2023-03-01T04:38:36;6.03;;;4.67;;
11711;SDS011;5912;51.034;6.984;2023-03-01T04:41:06;9.47;;;5.50;;
11711;SDS011;5912;51.034;6.984;2023-03-01T04:43:33;8.20;;;5.50;;
11711;SDS011;5912;51.034;6.984;2023-03-01T04:46:00;8.40;;;5.20;;
11711;SDS011;5912;51.034;6.984;2023-03-01T04:48:27;7.07;;;5.43;;
11711;SDS011;5912;51.034;6.984;2023-03-01T04:50:53;6.47;;;5.27;;
11711;SDS011;5912;51.034;6.984;2023-03-01T04:53:18;7.37;;;5.03;;
11711;SDS011;5912;51.034;6.984;2023-03-01T04:55:43;7.43;;;5.60;;
11711;SDS011;5912;51.034;6.984;2023-03-01T04:58:09;8.53;;;5.90;;
11711;SDS011;5912;51.034;6.984;2023-03-01T05:00:34;7.33;;;4.87;;
11711;SDS011;5912;51.034;6.984;2023-03-01T05:03:00;8.00;;;5.40;;
11711;SDS011;5912;51.034;6.984;2023-03-01T05:05:31;7.53;;;5.20;;
11711;SDS011;5912;51.034;6.984;2023-03-01T05:08:02;6.93;;;5.20;;
11711;SDS011;5912;51.034;6.984;2023-03-01T05:10:30;7.17;;;5.53;;
11711;SDS011;5912;51.034;6.984;2023-03-01T05:12:57;7.67;;;5.33;;
11711;SDS011;5912;51.034;6.984;2023-03-01T05:15:24;7.13;;;5.40;;
11711;SDS011;5912;51.034;6.984;2023-03-01T05:17:50;7.57;;;5.47;;
11711;SDS011;5912;51.034;6.984;2023-03-01T05:20:16;7.10;;;5.70;;
11711;SDS011;5912;51.034;6.984;2023-03-01T05:22:42;9.07;;;5.63;;
11711;SDS011;5912;51.034;6.984;2023-03-01T05:25:08;6.57;;;5.47;;
11711;SDS011;5912;51.034;6.984;2023-03-01T05:27:33;7.00;;;5.43;;
11711;SDS011;5912;51.034;6.984;2023-03-01T05:30:00;7.27;;;5.70;;
11711;SDS011;5912;51.034;6.984;2023-03-01T05:32:38;8.43;;;5.77;;
11711;SDS011;5912;51.034;6.984;2023-03-01T05:35:03;7.27;;;5.63;;
11711;SDS011;5912;51.034;6.984;2023-03-01T05:37:29;7.63;;;5.57;;
11711;SDS011;5912;51.034;6.984;2023-03-01T05:39:54;7.40;;;5.97;;
11711;SDS011;5912;51.034;6.984;2023-03-01T05:42:20;7.27;;;5.47;;
11711;SDS011;5912;51.034;6.984;2023-03-01T05:44:45;11.20;;;5.87;;
11711;SDS011;5912;51.034;6.984;2023-03-01T05:47:10;7.97;;;5.70;;
11711;SDS011;5912;51.034;6.984;2023-03-01T05:49:36;8.60;;;6.30;;
11711;SDS011;5912;51.034;6.984;2023-03-01T05:52:01;7.33;;;5.83;;
11711;SDS011;5912;51.034;6.984;2023-03-01T05:54:26;8.13;;;5.80;;
11711;SDS011;5912;51.034;6.984;2023-03-01T05:56:52;10.83;;;6.20;;
11711;SDS011;5912;51.034;6.984;2023-03-01T05:59:17;8.40;;;6.07;;
11711;SDS011;5912;51.034;6.984;2023-03-01T06:01:42;8.90;;;6.00;;
11711;SDS011;5912;51.034;6.984;2023-03-01T06:04:08;8.30;;;6.00;;
11711;SDS011;5912;51.034;6.984;2023-03-01T06:06:34;9.03;;;5.80;;
11711;SDS011;5912;51.034;6.984;2023-03-01T06:09:04;7.63;;;6.00;;
11711;SDS011;5912;51.034;6.984;2023-03-01T06:11:33;9.10;;;6.13;;
11711;SDS011;5912;51.034;6.984;2023-03-01T06:13:59;7.23;;;5.70;;
11711;SDS011;5912;51.034;6.984;2023-03-01T06:16:24;8.63;;;6.00;;
11711;SDS011;5912;51.034;6.984;2023-03-01T06:18:49;9.23;;;6.27;;
11711;SDS011;5912;51.034;6.984;2023-03-01T06:21:15;8.43;;;6.07;;
11711;SDS011;5912;51.034;6.984;2023-03-01T06:23:40;8.83;;;5.97;;
11711;SDS011;5912;51.034;6.984;2023-03-01T06:26:06;8.27;;;5.93;;
11711;SDS011;5912;51.034;6.984;2023-03-01T06:28:32;8.53;;;6.00;;
11711;SDS011;5912;51.034;6.984;2023-03-01T06:30:58;8.07;;;5.97;;
11711;SDS011;5912;51.034;6.984;2023-03-01T06:33:23;9.53;;;6.60;;
11711;SDS011;5912;51.034;6.984;2023-03-01T06:35:49;10.17;;;6.80;;
11711;SDS011;5912;51.034;6.984;2023-03-01T06:38:15;9.40;;;6.80;;
11711;SDS011;5912;51.034;6.984;2023-03-01T06:40:42;7.97;;;6.00;;
11711;SDS011;5912;51.034;6.984;2023-03-01T06:43:07;8.47;;;6.30;;
11711;SDS011;5912;51.034;6.984;2023-03-01T06:45:33;7.40;;;5.90;;
11711;SDS011;5912;51.034;6.984;2023-03-01T06:48:05;8.20;;;6.43;;
11711;SDS011;5912;51.034;6.984;2023-03-01T06:50:31;8.63;;;6.47;;
11711;SDS011;5912;51.034;6.984;2023-03-01T06:52:57;8.13;;;5.90;;
11711;SDS011;5912;51.034;6.984;2023-03-01T06:55:22;8.23;;;6.50;;
11711;SDS011;5912;51.034;6.984;2023-03-01T06:57:47;9.40;;;6.77;;
11711;SDS011;5912;51.034;6.984;2023-03-01T07:00:13;8.17;;;5.97;;
11711;SDS011;5912;51.034;6.984;2023-03-01T07:02:39;10.17;;;7.03;;
11711;SDS011;5912;51.034;6.984;2023-03-01T07:05:04;9.83;;;6.33;;
11711;SDS011;5912;51.034;6.984;2023-03-01T07:07:29;8.70;;;6.47;;
11711;SDS011;5912;51.034;6.984;2023-03-01T07:09:55;9.40;;;7.23;;
11711;SDS011;5912;51.034;6.984;2023-03-01T07:12:20;10.17;;;6.93;;
11711;SDS011;5912;51.034;6.984;2023-03-01T07:14:45;9.50;;;6.83;;
11711;SDS011;5912;51.034;6.984;2023-03-01T07:17:11;9.97;;;7.00;;
11711;SDS011;5912;51.034;6.984;2023-03-01T07:19:36;9.80;;;6.90;;
11711;SDS011;5912;51.034;6.984;2023-03-01T07:22:03;12.27;;;8.03;;
11711;SDS011;5912;51.034;6.984;2023-03-01T07:24:29;10.27;;;7.60;;
11711;SDS011;5912;51.034;6.984;2023-03-01T07:26:54;12.53;;;7.43;;
11711;SDS011;5912;51.034;6.984;2023-03-01T07:29:20;8.57;;;7.00;;
11711;SDS011;5912;51.034;6.984;2023-03-01T07:31:45;10.77;;;7.73;;
11711;SDS011;5912;51.034;6.984;2023-03-01T07:34:11;11.77;;;7.63;;
11711;SDS011;5912;51.034;6.984;2023-03-01T07:36:37;9.27;;;7.13;;
11711;SDS011;5912;51.034;6.984;2023-03-01T07:39:02;9.17;;;7.00;;
11711;SDS011;5912;51.034;6.984;2023-03-01T07:41:28;10.60;;;7.57;;
11711;SDS011;5912;51.034;6.984;2023-03-01T07:43:54;10.20;;;7.23;;
11711;SDS011;5912;51.034;6.984;2023-03-01T07:46:19;11.00;;;8.10;;
11711;SDS011;5912;51.034;6.984;2023-03-01T07:48:45;11.80;;;7.73;;
11711;SDS011;5912;51.034;6.984;2023-03-01T07:51:10;12.13;;;7.93;;
11711;SDS011;5912;51.034;6.984;2023-03-01T07:53:36;12.00;;;8.03;;
11711;SDS011;5912;51.034;6.984;2023-03-01T07:56:09;11.43;;;7.67;;
11711;SDS011;5912;51.034;6.984;2023-03-01T07:58:37;9.07;;;6.77;;
11711;SDS011;5912;51.034;6.984;2023-03-01T08:01:04;12.43;;;7.47;;
11711;SDS011;5912;51.034;6.984;2023-03-01T08:03:32;11.37;;;7.17;;
11711;SDS011;5912;51.034;6.984;2023-03-01T08:06:05;9.60;;;6.83;;
11711;SDS011;5912;51.034;6.984;2023-03-01T08:08:32;9.97;;;6.60;;
11711;SDS011;5912;51.034;6.984;2023-03-01T08:10:58;9.30;;;7.57;;
11711;SDS011;5912;51.034;6.984;2023-03-01T08:13:24;8.27;;;6.23;;
11711;SDS011;5912;51.034;6.984;2023-03-01T08:15:50;9.57;;;6.33;;
11711;SDS011;5912;51.034;6.984;2023-03-01T08:18:17;9.20;;;7.17;;
11711;SDS011;5912;51.034;6.984;2023-03-01T08:20:43;9.00;;;6.77;;
11711;SDS011;5912;51.034;6.984;2023-03-01T08:23:09;8.70;;;6.23;;
11711;SDS011;5912;51.034;6.984;2023-03-01T08:25:34;8.40;;;6.33;;
11711;SDS011;5912;51.034;6.984;2023-03-01T08:28:00;8.30;;;6.43;;
11711;SDS011;5912;51.034;6.984;2023-03-01T08:30:25;7.67;;;6.30;;
11711;SDS011;5912;51.034;6.984;2023-03-01T08:32:51;10.60;;;6.63;;
11711;SDS011;5912;51.034;6.984;2023-03-01T08:35:16;8.40;;;6.50;;
11711;SDS011;5912;51.034;6.984;2023-03-01T08:37:42;9.80;;;6.70;;
11711;SDS011;5912;51.034;6.984;2023-03-01T08:40:08;8.67;;;6.73;;
11711;SDS011;5912;51.034;6.984;2023-03-01T08:42:35;10.83;;;7.30;;
11711;SDS011;5912;51.034;6.984;2023-03-01T08:45:00;8.70;;;6.57;;
11711;SDS011;5912;51.034;6.984;2023-03-01T08:47:26;8.50;;;6.27;;
11711;SDS011;5912;51.034;6.984;2023-03-01T08:49:51;7.87;;;6.00;;
11711;SDS011;5912;51.034;6.984;2023-03-01T08:52:17;8.93;;;6.30;;
11711;SDS011;5912;51.034;6.984;2023-03-01T08:54:43;8.10;;;6.30;;
11711;SDS011;5912;51.034;6.984;2023-03-01T08:57:09;7.10;;;5.63;;
11711;SDS011;5912;51.034;6.984;2023-03-01T08:59:34;8.10;;;6.20;;
11711;SDS011;5912;51.034;6.984;2023-03-01T09:02:02;7.73;;;6.00;;
11711;SDS011;5912;51.034;6.984;2023-03-01T09:04:35;10.23;;;6.50;;
11711;SDS011;5912;51.034;6.984;2023-03-01T09:07:00;7.03;;;5.73;;
11711;SDS011;5912;51.034;6.984;2023-03-01T09:09:25;8.00;;;5.97;;
11711;SDS011;5912;51.034;6.984;2023-03-01T09:11:50;7.73;;;5.80;;
11711;SDS011;5912;51.034;6.984;2023-03-01T09:14:16;7.40;;;5.47;;
11711;SDS011;5912;51.034;6.984;2023-03-01T09:16:41;7.17;;;4.97;;
11711;SDS011;5912;51.034;6.984;2023-03-01T09:19:07;7.87;;;5.03;;
11711;SDS011;5912;51.034;6.984;2023-03-01T09:21:32;7.10;;;5.37;;
11711;SDS011;5912;51.034;6.984;2023-03-01T09:23:58;9.47;;;5.83;;
11711;SDS011;5912;51.034;6.984;2023-03-01T09:26:23;6.60;;;5.00;;
11711;SDS011;5912;51.034;6.984;2023-03-01T09:28:51;7.40;;;5.53;;
11711;SDS011;5912;51.034;6.984;2023-03-01T09:31:19;6.33;;;5.50;;
11711;SDS011;5912;51.034;6.984;2023-03-01T09:33:47;6.80;;;5.37;;
11711;SDS011;5912;51.034;6.984;2023-03-01T09:36:15;6.07;;;5.25;;
11711;SDS011;5912;51.034;6.984;2023-03-01T09:38:42;8.60;;;6.10;;
11711;SDS011;5912;51.034;6.984;2023-03-01T09:41:31;8.30;;;5.50;;
11711;SDS011;5912;51.034;6.984;2023-03-01T09:44:00;7.40;;;5.63;;
11711;SDS011;5912;51.034;6.984;2023-03-01T09:46:31;6.90;;;5.20;;
11711;SDS011;5912;51.034;6.984;2023-03-01T09:49:09;7.38;;;5.20;;
11711;SDS011;5912;51.034;6.984;2023-03-01T09:51:39;7.22;;;5.40;;
11711;SDS011;5912;51.034;6.984;2023-03-01T09:54:05;6.55;;;5.32;;
11711;SDS011;5912;51.034;6.984;2023-03-01T09:59:13;6.18;;;5.47;;
11711;SDS011;5912;51.034;6.984;2023-03-01T10:04:49;7.22;;;5.28;;
11711;SDS011;5912;51.034;6.984;2023-03-01T10:10:23;8.38;;;5.20;;
11711;SDS011;5912;51.034;6.984;2023-03-01T10:12:53;9.02;;;6.13;;
11711;SDS011;5912;51.034;6.984;2023-03-01T10:15:34;8.05;;;5.90;;
11711;SDS011;5912;51.034;6.984;2023-03-01T10:18:06;8.10;;;5.10;;
11711;SDS011;5912;51.034;6.984;2023-03-01T10:20:44;9.15;;;6.30;;
11711;SDS011;5912;51.034;6.984;2023-03-01T10:23:13;6.70;;;4.93;;
11711;SDS011;5912;51.034;6.984;2023-03-01T10:25:55;6.85;;;5.20;;
11711;SDS011;5912;51.034;6.984;2023-03-01T10:31:20;9.13;;;5.70;;
11711;SDS011;5912;51.034;6.984;2023-03-01T10:33:52;7.55;;;5.25;;
11711;SDS011;5912;51.034;6.984;2023-03-01T10:36:20;7.28;;;5.68;;
11711;SDS011;5912;51.034;6.984;2023-03-01T10:41:22;6.85;;;5.50;;
11711;SDS011;5912;51.034;6.984;2023-03-01T10:43:53;7.75;;;5.50;;
11711;SDS011;5912;51.034;6.984;2023-03-01T10:51:40;8.32;;;5.65;;
11711;SDS011;5912;51.034;6.984;2023-03-01T10:54:15;9.52;;;6.00;;
11711;SDS011;5912;51.034;6.984;2023-03-01T10:57:22;6.57;;;5.70;;
11711;SDS011;5912;51.034;6.984;2023-03-01T10:59:51;8.13;;;5.68;;
11711;SDS011;5912;51.034;6.984;2023-03-01T11:02:29;6.63;;;5.00;;
11711;SDS011;5912;51.034;6.984;2023-03-01T11:07:54;7.57;;;5.53;;
11711;SDS011;5912;51.034;6.984;2023-03-01T11:10:31;6.10;;;5.47;;
11711;SDS011;5912;51.034;6.984;2023-03-01T11:13:32;6.35;;;5.53;;
11711;SDS011;5912;51.034;6.984;2023-03-01T11:16:00;7.68;;;5.78;;
11711;SDS011;5912;51.034;6.984;2023-03-01T11:18:29;8.20;;;5.75;;
11711;SDS011;5912;51.034;6.984;2023-03-01T11:20:55;8.30;;;5.65;;
11711;SDS011;5912;51.034;6.984;2023-03-01T11:23:23;8.70;;;6.03;;
11711;SDS011;5912;51.034;6.984;2023-03-01T11:25:51;7.45;;;5.35;;
11711;SDS011;5912;51.034;6.984;2023-03-01T11:28:20;6.50;;;5.35;;
11711;SDS011;5912;51.034;6.984;2023-03-01T11:30:51;6.15;;;5.25;;
11711;SDS011;5912;51.034;6.984;2023-03-01T11:38:32;7.32;;;5.68;;
11711;SDS011;5912;51.034;6.984;2023-03-01T11:41:04;7.55;;;5.53;;
11711;SDS011;5912;51.034;6.984;2023-03-01T11:54:26;6.95;;;5.63;;
11711;SDS011;5912;51.034;6.984;2023-03-01T12:00:07;9.57;;;5.60;;
11711;SDS011;5912;51.034;6.984;2023-03-01T12:11:17;6.07;;;5.05;;
11711;SDS011;5912;51.034;6.984;2023-03-01T12:20:02;7.55;;;5.88;;
11711;SDS011;5912;51.034;6.984;2023-03-01T12:22:51;7.07;;;5.85;;
11711;SDS011;5912;51.034;6.984;2023-03-01T12:25:28;9.23;;;6.55;;
11711;SDS011;5912;51.034;6.984;2023-03-01T12:30:55;8.40;;;5.50;;
11711;SDS011;5912;51.034;6.984;2023-03-01T12:33:54;7.30;;;5.75;;
11711;SDS011;5912;51.034;6.984;2023-03-01T12:36:31;6.57;;;5.10;;
11711;SDS011;5912;51.034;6.984;2023-03-01T12:39:10;8.85;;;5.68;;
11711;SDS011;5912;51.034;6.984;2023-03-01T12:47:31;6.93;;;5.43;;
11711;SDS011;5912;51.034;6.984;2023-03-01T12:53:03;7.50;;;5.15;;
11711;SDS011;5912;51.034;6.984;2023-03-01T12:55:29;6.60;;;5.00;;
11711;SDS011;5912;51.034;6.984;2023-03-01T13:03:00;9.48;;;5.57;;
11711;SDS011;5912;51.034;6.984;2023-03-01T13:08:20;7.28;;;5.30;;
11711;SDS011;5912;51.034;6.984;2023-03-01T13:10:56;14.70;;;10.27;;
11711;SDS011;5912;51.034;6.984;2023-03-01T13:13:26;9.07;;;6.40;;
11711;SDS011;5912;51.034;6.984;2023-03-01T13:15:53;7.88;;;5.85;;
11711;SDS011;5912;51.034;6.984;2023-03-01T13:23:25;7.80;;;5.88;;
11711;SDS011;5912;51.034;6.984;2023-03-01T13:31:08;8.13;;;5.47;;
11711;SDS011;5912;51.034;6.984;2023-03-01T13:33:39;8.10;;;5.85;;
11711;SDS011;5912;51.034;6.984;2023-03-01T13:36:05;6.82;;;4.93;;
11711;SDS011;5912;51.034;6.984;2023-03-01T13:44:24;6.03;;;4.63;;
11711;SDS011;5912;51.034;6.984;2023-03-01T13:46:51;7.13;;;5.50;;
11711;SDS011;5912;51.034;6.984;2023-03-01T13:49:18;5.68;;;4.93;;
11711;SDS011;5912;51.034;6.984;2023-03-01T13:51:46;6.65;;;5.40;;
11711;SDS011;5912;51.034;6.984;2023-03-01T13:54:13;7.00;;;4.55;;
11711;SDS011;5912;51.034;6.984;2023-03-01T13:56:40;7.93;;;5.47;;
11711;SDS011;5912;51.034;6.984;2023-03-01T13:59:17;6.00;;;5.22;;
11711;SDS011;5912;51.034;6.984;2023-03-01T14:01:51;6.63;;;5.88;;
11711;SDS011;5912;51.034;6.984;2023-03-01T14:04:29;7.03;;;5.40;;
11711;SDS011;5912;51.034;6.984;2023-03-01T14:07:10;9.45;;;5.53;;
11711;SDS011;5912;51.034;6.984;2023-03-01T14:09:51;15.50;;;10.65;;
11711;SDS011;5912;51.034;6.984;2023-03-01T14:17:24;7.50;;;6.18;;
11711;SDS011;5912;51.034;6.984;2023-03-01T14:22:41;5.80;;;5.15;;
11711;SDS011;5912;51.034;6.984;2023-03-01T14:25:21;9.10;;;6.30;;
11711;SDS011;5912;51.034;6.984;2023-03-01T14:27:56;7.88;;;5.45;;
11711;SDS011;5912;51.034;6.984;2023-03-01T14:30:26;7.55;;;5.28;;
11711;SDS011;5912;51.034;6.984;2023-03-01T14:33:00;7.60;;;5.60;;
11711;SDS011;5912;51.034;6.984;2023-03-01T14:35:28;9.48;;;5.40;;
11711;SDS011;5912;51.034;6.984;2023-03-01T14:37:56;8.95;;;6.88;;
11711;SDS011;5912;51.034;6.984;2023-03-01T14:40:23;5.95;;;5.30;;
11711;SDS011;5912;51.034;6.984;2023-03-01T14:43:10;7.32;;;6.05;;
11711;SDS011;5912;51.034;6.984;2023-03-01T14:45:46;7.90;;;5.28;;
11711;SDS011;5912;51.034;6.984;2023-03-01T14:48:13;6.95;;;5.20;;
11711;SDS011;5912;51.034;6.984;2023-03-01T14:50:42;8.30;;;5.20;;
11711;SDS011;5912;51.034;6.984;2023-03-01T14:53:17;8.23;;;5.10;;
11711;SDS011;5912;51.034;6.984;2023-03-01T14:55:46;6.60;;;5.10;;
11711;SDS011;5912;51.034;6.984;2023-03-01T14:58:14;6.43;;;5.18;;
11711;SDS011;5912;51.034;6.984;2023-03-01T15:00:47;6.40;;;4.43;;
11711;SDS011;5912;51.034;6.984;2023-03-01T15:03:33;6.30;;;4.85;;
11711;SDS011;5912;51.034;6.984;2023-03-01T15:06:04;6.80;;;5.28;;
11711;SDS011;5912;51.034;6.984;2023-03-01T15:08:31;8.30;;;5.75;;
11711;SDS011;5912;51.034;6.984;2023-03-01T15:13:38;11.02;;;7.32;;
11711;SDS011;5912;51.034;6.984;2023-03-01T15:16:08;8.52;;;6.90;;
11711;SDS011;5912;51.034;6.984;2023-03-01T15:18:36;7.15;;;5.50;;
11711;SDS011;5912;51.034;6.984;2023-03-01T15:21:13;6.63;;;5.72;;
11711;SDS011;5912;51.034;6.984;2023-03-01T15:23:47;10.25;;;6.20;;
11711;SDS011;5912;51.034;6.984;2023-03-01T15:26:22;10.07;;;6.35;;
11711;SDS011;5912;51.034;6.984;2023-03-01T15:28:57;8.50;;;5.80;;
11711;SDS011;5912;51.034;6.984;2023-03-01T15:31:25;6.95;;;5.30;;
11711;SDS011;5912;51.034;6.984;2023-03-01T15:34:09;7.45;;;5.38;;
11711;SDS011;5912;51.034;6.984;2023-03-01T15:36:46;7.07;;;5.30;;
11711;SDS011;5912;51.034;6.984;2023-03-01T15:42:12;7.47;;;5.38;;
11711;SDS011;5912;51.034;6.984;2023-03-01T15:47:40;7.20;;;4.57;;
11711;SDS011;5912;51.034;6.984;2023-03-01T15:50:11;6.60;;;4.68;;
11711;SDS011;5912;51.034;6.984;2023-03-01T15:52:48;5.82;;;4.43;;
11711;SDS011;5912;51.034;6.984;2023-03-01T15:55:18;8.18;;;5.07;;
11711;SDS011;5912;51.034;6.984;2023-03-01T15:57:46;6.80;;;4.72;;
11711;SDS011;5912;51.034;6.984;2023-03-01T16:00:12;6.20;;;4.35;;
11711;SDS011;5912;51.034;6.984;2023-03-01T16:02:39;7.53;;;4.67;;
11711;SDS011;5912;51.034;6.984;2023-03-01T16:05:05;9.00;;;4.32;;
11711;SDS011;5912;51.034;6.984;2023-03-01T16:07:41;6.80;;;3.95;;
11711;SDS011;5912;51.034;6.984;2023-03-01T16:10:07;5.03;;;3.97;;
11711;SDS011;5912;51.034;6.984;2023-03-01T16:12:32;5.90;;;4.03;;
11711;SDS011;5912;51.034;6.984;2023-03-01T16:14:57;5.85;;;4.40;;
11711;SDS011;5912;51.034;6.984;2023-03-01T16:17:23;5.82;;;4.32;;
11711;SDS011;5912;51.034;6.984;2023-03-01T16:19:48;6.05;;;3.88;;
11711;SDS011;5912;51.034;6.984;2023-03-01T16:22:13;5.75;;;4.15;;
11711;SDS011;5912;51.034;6.984;2023-03-01T16:24:39;7.83;;;4.07;;
11711;SDS011;5912;51.034;6.984;2023-03-01T16:27:05;7.80;;;4.57;;
11711;SDS011;5912;51.034;6.984;2023-03-01T16:29:31;6.60;;;4.50;;
11711;SDS011;5912;51.034;6.984;2023-03-01T16:31:56;5.90;;;4.13;;
11711;SDS011;5912;51.034;6.984;2023-03-01T16:34:21;5.47;;;4.40;;
11711;SDS011;5912;51.034;6.984;2023-03-01T16:36:47;7.57;;;5.83;;
11711;SDS011;5912;51.034;6.984;2023-03-01T16:39:12;8.37;;;5.70;;
11711;SDS011;5912;51.034;6.984;2023-03-01T16:41:38;7.37;;;5.57;;
11711;SDS011;5912;51.034;6.984;2023-03-01T16:44:03;5.67;;;4.30;;
11711;SDS011;5912;51.034;6.984;2023-03-01T16:46:29;5.40;;;4.13;;
11711;SDS011;5912;51.034;6.984;2023-03-01T16:48:54;5.70;;;4.63;;
11711;SDS011;5912;51.034;6.984;2023-03-01T16:51:20;4.80;;;3.90;;
11711;SDS011;5912;51.034;6.984;2023-03-01T16:53:47;7.50;;;4.63;;
11711;SDS011;5912;51.034;6.984;2023-03-01T16:56:13;7.83;;;4.33;;
11711;SDS011;5912;51.034;6.984;2023-03-01T16:58:39;6.80;;;4.53;;
11711;SDS011;5912;51.034;6.984;2023-03-01T17:01:06;5.47;;;4.27;;
11711;SDS011;5912;51.034;6.984;2023-03-01T17:03:34;6.67;;;4.37;;
11711;SDS011;5912;51.034;6.984;2023-03-01T17:06:03;5.23;;;4.17;;
11711;SDS011;5912;51.034;6.984;2023-03-01T17:08:30;6.50;;;4.90;;
11711;SDS011;5912;51.034;6.984;2023-03-01T17:11:01;6.80;;;5.23;;
11711;SDS011;5912;51.034;6.984;2023-03-01T17:13:30;8.13;;;5.17;;
11711;SDS011;5912;51.034;6.984;2023-03-01T17:15:55;5.70;;;3.87;;